sensor_id;sensor_type;location;lat;lon;timestamp;temperature;humidity
15231;DHT22;32569;51.762;8.564;2022-12-29T00:00:10;10.20;99.90
15231;DHT22;32569;51.762;8.564;2022-12-29T00:02:37;10.20;99.90
15231;DHT22;32569;51.762;8.564;2022-12-29T00:05:05;10.30;99.90
15231;DHT22;32569;51.762;8.564;2022-12-29T00:07:32;10.30;99.90
15231;DHT22;32569;51.762;8.564;2022-12-29T00:09:59;10.30;99.90
15231;DHT22;32569;51.762;8.564;2022-12-29T00:12:25;10.30;99.90
15231;DHT22;32569;51.762;8.564;2022-12-29T00:15:14;10.30;99.90
15231;DHT22;32569;51.762;8.564;2022-12-29T00:17:58;10.30;99.90
15231;DHT22;32569;51.762;8.564;2022-12-29T00:20:25;10.30;99.90
15231;DHT22;32569;51.762;8.564;2022-12-29T00:23:12;10.30;99.90
15231;DHT22;32569;51.762;8.564;2022-12-29T00:25:56;10.30;99.90
15231;DHT22;32569;51.762;8.564;2022-12-29T00:28:40;10.30;99.90
15231;DHT22;32569;51.762;8.564;2022-12-29T00:31:34;10.30;99.90
15231;DHT22;32569;51.762;8.564;2022-12-29T00:34:18;10.30;99.90
15231;DHT22;32569;51.762;8.564;2022-12-29T00:37:02;10.40;99.90
15231;DHT22;32569;51.762;8.564;2022-12-29T00:39:29;10.40;99.90
15231;DHT22;32569;51.762;8.564;2022-12-29T00:42:13;10.40;99.90
15231;DHT22;32569;51.762;8.564;2022-12-29T00:44:54;10.40;99.90
15231;DHT22;32569;51.762;8.564;2022-12-29T00:47:22;10.40;99.90
15231;DHT22;32569;51.762;8.564;2022-12-29T00:49:48;10.40;99.90
15231;DHT22;32569;51.762;8.564;2022-12-29T00:52:14;10.40;99.90
15231;DHT22;32569;51.762;8.564;2022-12-29T00:54:41;10.30;99.90
15231;DHT22;32569;51.762;8.564;2022-12-29T00:57:10;10.30;99.90
15231;DHT22;32569;51.762;8.564;2022-12-29T00:59:38;10.30;99.90
15231;DHT22;32569;51.762;8.564;2022-12-29T01:02:06;10.30;99.90
15231;DHT22;32569;51.762;8.564;2022-12-29T01:04:34;10.40;99.90
15231;DHT22;32569;51.762;8.564;2022-12-29T01:07:01;10.40;99.90
15231;DHT22;32569;51.762;8.564;2022-12-29T01:09:27;10.30;99.90
15231;DHT22;32569;51.762;8.564;2022-12-29T01:12:12;10.30;99.90
15231;DHT22;32569;51.762;8.564;2022-12-29T01:14:39;10.30;99.90
15231;DHT22;32569;51.762;8.564;2022-12-29T01:17:05;10.30;99.90
15231;DHT22;32569;51.762;8.564;2022-12-29T01:19:33;10.30;99.90
15231;DHT22;32569;51.762;8.564;2022-12-29T01:22:03;10.40;99.90
15231;DHT22;32569;51.762;8.564;2022-12-29T01:24:29;10.40;99.90
15231;DHT22;32569;51.762;8.564;2022-12-29T01:26:56;10.40;99.90
15231;DHT22;32569;51.762;8.564;2022-12-29T01:29:23;10.40;99.90
15231;DHT22;32569;51.762;8.564;2022-12-29T01:31:49;10.40;99.90
15231;DHT22;32569;51.762;8.564;2022-12-29T01:34:16;10.40;99.90
15231;DHT22;32569;51.762;8.564;2022-12-29T01:36:44;10.40;99.90
15231;DHT22;32569;51.762;8.564;2022-12-29T01:39:11;10.40;99.90
15231;DHT22;32569;51.762;8.564;2022-12-29T01:41:37;10.40;99.90
15231;DHT22;32569;51.762;8.564;2022-12-29T01:47:04;10.40;99.90
15231;DHT22;32569;51.762;8.564;2022-12-29T01:49:31;10.40;99.90
15231;DHT22;32569;51.762;8.564;2022-12-29T01:52:02;10.50;99.90
15231;DHT22;32569;51.762;8.564;2022-12-29T01:54:32;10.50;99.90
15231;DHT22;32569;51.762;8.564;2022-12-29T01:57:03;10.50;99.90
15231;DHT22;32569;51.762;8.564;2022-12-29T01:59:34;10.50;99.90
15231;DHT22;32569;51.762;8.564;2022-12-29T02:02:04;10.50;99.90
15231;DHT22;32569;51.762;8.564;2022-12-29T02:04:32;10.60;99.90
15231;DHT22;32569;51.762;8.564;2022-12-29T02:07:02;10.60;99.90
15231;DHT22;32569;51.762;8.564;2022-12-29T02:09:30;10.70;99.90
15231;DHT22;32569;51.762;8.564;2022-12-29T02:11:58;10.70;99.90
15231;DHT22;32569;51.762;8.564;2022-12-29T02:14:25;10.70;99.90
15231;DHT22;32569;51.762;8.564;2022-12-29T02:17:01;10.80;99.90
15231;DHT22;32569;51.762;8.564;2022-12-29T02:22:35;10.80;99.90
15231;DHT22;32569;51.762;8.564;2022-12-29T02:25:30;10.90;99.90
15231;DHT22;32569;51.762;8.564;2022-12-29T02:28:32;10.90;99.90
15231;DHT22;32569;51.762;8.564;2022-12-29T02:31:12;10.90;99.90
15231;DHT22;32569;51.762;8.564;2022-12-29T02:33:52;10.80;99.90
15231;DHT22;32569;51.762;8.564;2022-12-29T02:36:28;10.90;99.90
15231;DHT22;32569;51.762;8.564;2022-12-29T02:39:00;11.00;99.90
15231;DHT22;32569;51.762;8.564;2022-12-29T02:41:32;10.90;99.90
15231;DHT22;32569;51.762;8.564;2022-12-29T02:44:03;10.80;99.90
15231;DHT22;32569;51.762;8.564;2022-12-29T02:46:36;10.70;99.90
15231;DHT22;32569;51.762;8.564;2022-12-29T02:49:09;10.70;99.90
15231;DHT22;32569;51.762;8.564;2022-12-29T02:51:43;10.70;99.90
15231;DHT22;32569;51.762;8.564;2022-12-29T02:54:10;10.60;99.90
15231;DHT22;32569;51.762;8.564;2022-12-29T02:56:55;10.60;99.90
15231;DHT22;32569;51.762;8.564;2022-12-29T02:59:22;10.70;99.90
15231;DHT22;32569;51.762;8.564;2022-12-29T03:02:03;10.60;99.90
15231;DHT22;32569;51.762;8.564;2022-12-29T03:05:14;10.60;99.90
15231;DHT22;32569;51.762;8.564;2022-12-29T03:07:49;10.60;99.90
15231;DHT22;32569;51.762;8.564;2022-12-29T03:10:29;10.60;99.90
15231;DHT22;32569;51.762;8.564;2022-12-29T03:13:02;10.70;99.90
15231;DHT22;32569;51.762;8.564;2022-12-29T03:15:53;10.80;99.90
15231;DHT22;32569;51.762;8.564;2022-12-29T03:18:45;10.80;99.90
15231;DHT22;32569;51.762;8.564;2022-12-29T03:21:15;10.80;99.90
15231;DHT22;32569;51.762;8.564;2022-12-29T03:23:44;10.90;99.90
15231;DHT22;32569;51.762;8.564;2022-12-29T03:26:14;10.90;99.90
15231;DHT22;32569;51.762;8.564;2022-12-29T03:28:45;10.90;99.90
15231;DHT22;32569;51.762;8.564;2022-12-29T03:31:14;10.90;99.90
15231;DHT22;32569;51.762;8.564;2022-12-29T03:33:47;11.00;99.90
15231;DHT22;32569;51.762;8.564;2022-12-29T03:36:17;11.10;99.90
15231;DHT22;32569;51.762;8.564;2022-12-29T03:38:48;11.10;99.90
15231;DHT22;32569;51.762;8.564;2022-12-29T03:41:19;11.10;99.90
15231;DHT22;32569;51.762;8.564;2022-12-29T03:43:47;11.10;99.90
15231;DHT22;32569;51.762;8.564;2022-12-29T03:46:14;11.10;99.90
15231;DHT22;32569;51.762;8.564;2022-12-29T03:48:40;11.10;99.90
15231;DHT22;32569;51.762;8.564;2022-12-29T03:51:08;11.10;99.90
15231;DHT22;32569;51.762;8.564;2022-12-29T03:53:35;11.10;99.90
15231;DHT22;32569;51.762;8.564;2022-12-29T03:56:02;11.10;99.90
15231;DHT22;32569;51.762;8.564;2022-12-29T03:58:32;11.20;99.90
15231;DHT22;32569;51.762;8.564;2022-12-29T04:00:58;11.20;99.90
15231;DHT22;32569;51.762;8.564;2022-12-29T04:03:25;11.20;99.90
15231;DHT22;32569;51.762;8.564;2022-12-29T04:05:55;11.20;99.90
15231;DHT22;32569;51.762;8.564;2022-12-29T04:08:23;11.30;99.90
15231;DHT22;32569;51.762;8.564;2022-12-29T04:10:49;11.30;99.90
15231;DHT22;32569;51.762;8.564;2022-12-29T04:13:16;11.30;99.90
15231;DHT22;32569;51.762;8.564;2022-12-29T04:15:43;11.30;99.90
15231;DHT22;32569;51.762;8.564;2022-12-29T04:18:10;11.20;99.90
15231;DHT22;32569;51.762;8.564;2022-12-29T04:20:37;11.20;99.90
15231;DHT22;32569;51.762;8.564;2022-12-29T04:23:23;11.20;99.90
15231;DHT22;32569;51.762;8.564;2022-12-29T04:25:49;11.20;99.90
15231;DHT22;32569;51.762;8.564;2022-12-29T04:28:19;11.20;99.90
15231;DHT22;32569;51.762;8.564;2022-12-29T04:30:46;11.20;99.90
15231;DHT22;32569;51.762;8.564;2022-12-29T04:33:13;11.10;99.90
15231;DHT22;32569;51.762;8.564;2022-12-29T04:35:40;11.10;99.90
15231;DHT22;32569;51.762;8.564;2022-12-29T04:38:07;11.00;99.90
15231;DHT22;32569;51.762;8.564;2022-12-29T04:40:38;11.00;99.90
15231;DHT22;32569;51.762;8.564;2022-12-29T04:43:05;11.10;99.90
15231;DHT22;32569;51.762;8.564;2022-12-29T04:45:32;11.00;99.90
15231;DHT22;32569;51.762;8.564;2022-12-29T04:47:58;11.00;99.90
15231;DHT22;32569;51.762;8.564;2022-12-29T04:50:26;11.00;99.90
15231;DHT22;32569;51.762;8.564;2022-12-29T04:52:53;11.10;99.90
15231;DHT22;32569;51.762;8.564;2022-12-29T04:55:19;11.10;99.90
15231;DHT22;32569;51.762;8.564;2022-12-29T04:57:47;11.10;99.90
15231;DHT22;32569;51.762;8.564;2022-12-29T05:00:14;11.10;99.90
15231;DHT22;32569;51.762;8.564;2022-12-29T05:02:41;11.10;99.90
15231;DHT22;32569;51.762;8.564;2022-12-29T05:05:08;11.10;99.90
15231;DHT22;32569;51.762;8.564;2022-12-29T05:07:35;11.10;99.90
15231;DHT22;32569;51.762;8.564;2022-12-29T05:10:01;11.10;99.90
15231;DHT22;32569;51.762;8.564;2022-12-29T05:12:30;11.00;99.90
15231;DHT22;32569;51.762;8.564;2022-12-29T05:14:58;11.10;99.90
15231;DHT22;32569;51.762;8.564;2022-12-29T05:17:25;11.10;99.90
15231;DHT22;32569;51.762;8.564;2022-12-29T05:19:51;11.10;99.90
15231;DHT22;32569;51.762;8.564;2022-12-29T05:22:18;11.00;99.90
15231;DHT22;32569;51.762;8.564;2022-12-29T05:24:47;11.10;99.90
15231;DHT22;32569;51.762;8.564;2022-12-29T05:27:14;11.10;99.90
15231;DHT22;32569;51.762;8.564;2022-12-29T05:29:41;11.10;99.90
15231;DHT22;32569;51.762;8.564;2022-12-29T05:32:09;11.00;99.90
15231;DHT22;32569;51.762;8.564;2022-12-29T05:34:35;11.10;99.90
15231;DHT22;32569;51.762;8.564;2022-12-29T05:37:02;11.10;99.90
15231;DHT22;32569;51.762;8.564;2022-12-29T05:39:29;11.00;99.90
15231;DHT22;32569;51.762;8.564;2022-12-29T05:41:55;11.00;99.90
15231;DHT22;32569;51.762;8.564;2022-12-29T05:44:22;11.00;99.90
15231;DHT22;32569;51.762;8.564;2022-12-29T05:46:49;11.00;99.90
15231;DHT22;32569;51.762;8.564;2022-12-29T05:49:17;11.00;99.90
15231;DHT22;32569;51.762;8.564;2022-12-29T05:51:44;11.00;99.90
15231;DHT22;32569;51.762;8.564;2022-12-29T05:54:10;11.00;99.90
15231;DHT22;32569;51.762;8.564;2022-12-29T05:56:37;11.00;99.90
15231;DHT22;32569;51.762;8.564;2022-12-29T05:59:04;11.00;99.90
15231;DHT22;32569;51.762;8.564;2022-12-29T06:01:30;11.10;99.90
15231;DHT22;32569;51.762;8.564;2022-12-29T06:03:58;11.10;99.90
15231;DHT22;32569;51.762;8.564;2022-12-29T06:06:26;11.20;99.90
15231;DHT22;32569;51.762;8.564;2022-12-29T06:08:56;11.20;99.90
15231;DHT22;32569;51.762;8.564;2022-12-29T06:11:23;11.30;99.90
15231;DHT22;32569;51.762;8.564;2022-12-29T06:13:49;11.40;99.90
15231;DHT22;32569;51.762;8.564;2022-12-29T06:16:16;11.50;99.90
15231;DHT22;32569;51.762;8.564;2022-12-29T06:18:43;11.60;99.90
15231;DHT22;32569;51.762;8.564;2022-12-29T06:21:09;11.60;99.90
15231;DHT22;32569;51.762;8.564;2022-12-29T06:23:37;11.60;99.90
15231;DHT22;32569;51.762;8.564;2022-12-29T06:26:04;11.70;99.90
15231;DHT22;32569;51.762;8.564;2022-12-29T06:28:30;11.70;99.90
15231;DHT22;32569;51.762;8.564;2022-12-29T06:30:57;11.80;99.90
15231;DHT22;32569;51.762;8.564;2022-12-29T06:33:27;11.80;99.90
15231;DHT22;32569;51.762;8.564;2022-12-29T06:35:53;11.80;99.90
15231;DHT22;32569;51.762;8.564;2022-12-29T06:38:20;11.80;99.90
15231;DHT22;32569;51.762;8.564;2022-12-29T06:40:48;11.70;99.90
15231;DHT22;32569;51.762;8.564;2022-12-29T06:43:18;11.70;99.90
15231;DHT22;32569;51.762;8.564;2022-12-29T06:45:50;11.60;99.90
15231;DHT22;32569;51.762;8.564;2022-12-29T06:48:17;11.50;99.90
15231;DHT22;32569;51.762;8.564;2022-12-29T06:50:43;11.50;99.90
15231;DHT22;32569;51.762;8.564;2022-12-29T06:53:10;11.40;99.90
15231;DHT22;32569;51.762;8.564;2022-12-29T06:55:37;11.40;99.90
15231;DHT22;32569;51.762;8.564;2022-12-29T06:58:04;11.40;99.90
15231;DHT22;32569;51.762;8.564;2022-12-29T07:00:31;11.30;99.90
15231;DHT22;32569;51.762;8.564;2022-12-29T07:02:58;11.40;99.90
15231;DHT22;32569;51.762;8.564;2022-12-29T07:05:25;11.40;99.90
15231;DHT22;32569;51.762;8.564;2022-12-29T07:07:53;11.40;99.90
15231;DHT22;32569;51.762;8.564;2022-12-29T07:10:19;11.50;99.90
15231;DHT22;32569;51.762;8.564;2022-12-29T07:12:46;11.50;99.90
15231;DHT22;32569;51.762;8.564;2022-12-29T07:15:14;11.50;99.90
15231;DHT22;32569;51.762;8.564;2022-12-29T07:17:41;11.40;99.90
15231;DHT22;32569;51.762;8.564;2022-12-29T07:20:08;11.50;99.90
15231;DHT22;32569;51.762;8.564;2022-12-29T07:22:36;11.40;99.90
15231;DHT22;32569;51.762;8.564;2022-12-29T07:25:04;11.50;99.90
15231;DHT22;32569;51.762;8.564;2022-12-29T07:27:31;11.50;99.90
15231;DHT22;32569;51.762;8.564;2022-12-29T07:29:57;11.50;99.90
15231;DHT22;32569;51.762;8.564;2022-12-29T07:32:26;11.50;99.90
15231;DHT22;32569;51.762;8.564;2022-12-29T07:34:52;11.50;99.90
15231;DHT22;32569;51.762;8.564;2022-12-29T07:37:19;11.50;99.90
15231;DHT22;32569;51.762;8.564;2022-12-29T07:39:45;11.50;99.90
15231;DHT22;32569;51.762;8.564;2022-12-29T07:42:12;11.50;99.90
15231;DHT22;32569;51.762;8.564;2022-12-29T07:44:39;11.50;99.90
15231;DHT22;32569;51.762;8.564;2022-12-29T07:47:05;11.50;99.90
15231;DHT22;32569;51.762;8.564;2022-12-29T07:49:33;11.50;99.90
15231;DHT22;32569;51.762;8.564;2022-12-29T07:52:00;11.40;99.90
15231;DHT22;32569;51.762;8.564;2022-12-29T07:54:27;11.30;99.90
15231;DHT22;32569;51.762;8.564;2022-12-29T07:56:53;11.10;99.90
15231;DHT22;32569;51.762;8.564;2022-12-29T07:59:20;10.80;99.90
15231;DHT22;32569;51.762;8.564;2022-12-29T08:01:47;10.70;99.90
15231;DHT22;32569;51.762;8.564;2022-12-29T08:04:14;10.70;99.90
15231;DHT22;32569;51.762;8.564;2022-12-29T08:06:42;10.60;99.90
15231;DHT22;32569;51.762;8.564;2022-12-29T08:09:10;10.60;99.90
15231;DHT22;32569;51.762;8.564;2022-12-29T08:11:37;10.60;99.90
15231;DHT22;32569;51.762;8.564;2022-12-29T08:14:05;10.50;99.90
15231;DHT22;32569;51.762;8.564;2022-12-29T08:16:32;10.50;99.90
15231;DHT22;32569;51.762;8.564;2022-12-29T08:18:59;10.50;99.90
15231;DHT22;32569;51.762;8.564;2022-12-29T08:21:27;10.60;99.90
15231;DHT22;32569;51.762;8.564;2022-12-29T08:23:55;10.60;99.90
15231;DHT22;32569;51.762;8.564;2022-12-29T08:26:22;10.60;99.90
15231;DHT22;32569;51.762;8.564;2022-12-29T08:28:49;10.70;99.90
15231;DHT22;32569;51.762;8.564;2022-12-29T08:31:16;10.70;99.90
15231;DHT22;32569;51.762;8.564;2022-12-29T08:33:42;10.80;99.90
15231;DHT22;32569;51.762;8.564;2022-12-29T08:36:12;10.70;99.90
15231;DHT22;32569;51.762;8.564;2022-12-29T08:38:38;10.80;99.90
15231;DHT22;32569;51.762;8.564;2022-12-29T08:41:06;10.80;99.90
15231;DHT22;32569;51.762;8.564;2022-12-29T08:43:33;10.70;99.90
15231;DHT22;32569;51.762;8.564;2022-12-29T08:46:00;10.60;99.90
15231;DHT22;32569;51.762;8.564;2022-12-29T08:48:27;10.60;99.90
15231;DHT22;32569;51.762;8.564;2022-12-29T08:50:54;10.60;99.90
15231;DHT22;32569;51.762;8.564;2022-12-29T08:53:20;10.50;99.90
15231;DHT22;32569;51.762;8.564;2022-12-29T08:55:54;10.50;99.90
15231;DHT22;32569;51.762;8.564;2022-12-29T08:58:22;10.50;99.90
15231;DHT22;32569;51.762;8.564;2022-12-29T09:00:49;10.40;99.90
15231;DHT22;32569;51.762;8.564;2022-12-29T09:03:15;10.50;99.90
15231;DHT22;32569;51.762;8.564;2022-12-29T09:05:42;10.50;99.90
15231;DHT22;32569;51.762;8.564;2022-12-29T09:08:08;10.50;99.90
15231;DHT22;32569;51.762;8.564;2022-12-29T09:10:35;10.50;99.90
15231;DHT22;32569;51.762;8.564;2022-12-29T09:13:02;10.50;99.90
15231;DHT22;32569;51.762;8.564;2022-12-29T09:15:30;10.50;99.90
15231;DHT22;32569;51.762;8.564;2022-12-29T09:17:56;10.50;99.90
15231;DHT22;32569;51.762;8.564;2022-12-29T09:20:23;10.50;99.90
15231;DHT22;32569;51.762;8.564;2022-12-29T09:22:50;10.50;99.90
15231;DHT22;32569;51.762;8.564;2022-12-29T09:25:16;10.60;99.90
15231;DHT22;32569;51.762;8.564;2022-12-29T09:27:43;10.60;99.90
15231;DHT22;32569;51.762;8.564;2022-12-29T09:30:11;10.70;99.90
15231;DHT22;32569;51.762;8.564;2022-12-29T09:32:41;10.70;99.90
15231;DHT22;32569;51.762;8.564;2022-12-29T09:35:08;10.70;99.90
15231;DHT22;32569;51.762;8.564;2022-12-29T09:37:34;10.70;99.90
15231;DHT22;32569;51.762;8.564;2022-12-29T09:40:05;10.80;99.90
15231;DHT22;32569;51.762;8.564;2022-12-29T09:42:35;10.90;99.90
15231;DHT22;32569;51.762;8.564;2022-12-29T09:45:11;10.90;99.90
15231;DHT22;32569;51.762;8.564;2022-12-29T09:47:42;11.00;99.90
15231;DHT22;32569;51.762;8.564;2022-12-29T09:50:30;11.00;99.90
15231;DHT22;32569;51.762;8.564;2022-12-29T09:53:02;11.10;99.90
15231;DHT22;32569;51.762;8.564;2022-12-29T09:55:37;11.10;99.90
15231;DHT22;32569;51.762;8.564;2022-12-29T09:58:15;11.30;99.90
15231;DHT22;32569;51.762;8.564;2022-12-29T10:00:48;11.40;99.90
15231;DHT22;32569;51.762;8.564;2022-12-29T10:03:18;11.50;99.90
15231;DHT22;32569;51.762;8.564;2022-12-29T10:05:48;11.50;99.90
15231;DHT22;32569;51.762;8.564;2022-12-29T10:08:26;11.40;99.90
15231;DHT22;32569;51.762;8.564;2022-12-29T10:10:56;11.30;99.90
15231;DHT22;32569;51.762;8.564;2022-12-29T10:13:37;11.20;99.90
15231;DHT22;32569;51.762;8.564;2022-12-29T10:16:10;11.10;99.90
15231;DHT22;32569;51.762;8.564;2022-12-29T10:19:01;11.10;99.90
15231;DHT22;32569;51.762;8.564;2022-12-29T10:21:38;11.00;99.90
15231;DHT22;32569;51.762;8.564;2022-12-29T10:24:09;10.90;99.90
15231;DHT22;32569;51.762;8.564;2022-12-29T10:26:39;10.80;99.90
15231;DHT22;32569;51.762;8.564;2022-12-29T10:29:13;10.80;99.90
15231;DHT22;32569;51.762;8.564;2022-12-29T10:31:43;10.80;99.90
15231;DHT22;32569;51.762;8.564;2022-12-29T10:34:16;10.70;99.90
15231;DHT22;32569;51.762;8.564;2022-12-29T10:36:47;10.60;99.90
15231;DHT22;32569;51.762;8.564;2022-12-29T10:39:19;10.60;99.90
15231;DHT22;32569;51.762;8.564;2022-12-29T10:41:51;10.60;99.90
15231;DHT22;32569;51.762;8.564;2022-12-29T10:44:22;10.60;99.90
15231;DHT22;32569;51.762;8.564;2022-12-29T10:46:54;10.60;99.90
15231;DHT22;32569;51.762;8.564;2022-12-29T10:49:25;10.70;99.90
15231;DHT22;32569;51.762;8.564;2022-12-29T10:51:55;10.70;99.90
15231;DHT22;32569;51.762;8.564;2022-12-29T10:54:26;10.70;99.90
15231;DHT22;32569;51.762;8.564;2022-12-29T10:56:57;10.80;99.90
15231;DHT22;32569;51.762;8.564;2022-12-29T10:59:29;11.00;99.90
15231;DHT22;32569;51.762;8.564;2022-12-29T11:02:23;11.10;99.90
15231;DHT22;32569;51.762;8.564;2022-12-29T11:05:01;11.20;99.90
15231;DHT22;32569;51.762;8.564;2022-12-29T11:07:31;11.20;99.90
15231;DHT22;32569;51.762;8.564;2022-12-29T11:10:16;11.30;99.90
15231;DHT22;32569;51.762;8.564;2022-12-29T11:12:55;11.20;99.90
15231;DHT22;32569;51.762;8.564;2022-12-29T11:15:22;11.30;99.90
15231;DHT22;32569;51.762;8.564;2022-12-29T11:17:53;11.30;99.90
15231;DHT22;32569;51.762;8.564;2022-12-29T11:20:32;11.30;99.90
15231;DHT22;32569;51.762;8.564;2022-12-29T11:23:01;11.40;99.90
15231;DHT22;32569;51.762;8.564;2022-12-29T11:25:29;11.40;99.90
15231;DHT22;32569;51.762;8.564;2022-12-29T11:27:57;11.40;99.90
15231;DHT22;32569;51.762;8.564;2022-12-29T11:30:26;11.50;99.90
15231;DHT22;32569;51.762;8.564;2022-12-29T11:32:54;11.50;99.90
15231;DHT22;32569;51.762;8.564;2022-12-29T11:35:38;11.60;99.90
15231;DHT22;32569;51.762;8.564;2022-12-29T11:38:12;11.60;99.90
15231;DHT22;32569;51.762;8.564;2022-12-29T11:40:42;11.60;99.90
15231;DHT22;32569;51.762;8.564;2022-12-29T11:43:19;11.70;99.90
15231;DHT22;32569;51.762;8.564;2022-12-29T11:45:51;11.60;99.90
15231;DHT22;32569;51.762;8.564;2022-12-29T11:48:25;11.60;99.90
15231;DHT22;32569;51.762;8.564;2022-12-29T11:50:58;11.60;99.90
15231;DHT22;32569;51.762;8.564;2022-12-29T11:53:36;11.60;99.90
15231;DHT22;32569;51.762;8.564;2022-12-29T11:56:06;11.60;99.90
15231;DHT22;32569;51.762;8.564;2022-12-29T11:58:36;11.50;99.90
15231;DHT22;32569;51.762;8.564;2022-12-29T12:01:06;11.50;99.90
15231;DHT22;32569;51.762;8.564;2022-12-29T12:03:36;11.50;99.90
15231;DHT22;32569;51.762;8.564;2022-12-29T12:06:07;11.50;99.90
15231;DHT22;32569;51.762;8.564;2022-12-29T12:08:41;11.50;99.90
15231;DHT22;32569;51.762;8.564;2022-12-29T12:11:13;11.50;99.90
15231;DHT22;32569;51.762;8.564;2022-12-29T12:13:46;11.40;99.90
15231;DHT22;32569;51.762;8.564;2022-12-29T12:16:18;11.40;99.90
15231;DHT22;32569;51.762;8.564;2022-12-29T12:18:48;11.40;99.90
15231;DHT22;32569;51.762;8.564;2022-12-29T12:21:23;11.30;99.90
15231;DHT22;32569;51.762;8.564;2022-12-29T12:24:13;11.40;99.90
15231;DHT22;32569;51.762;8.564;2022-12-29T12:26:53;11.30;99.90
15231;DHT22;32569;51.762;8.564;2022-12-29T12:29:25;11.30;99.90
15231;DHT22;32569;51.762;8.564;2022-12-29T12:31:59;11.40;99.90
15231;DHT22;32569;51.762;8.564;2022-12-29T12:34:33;11.40;99.90
15231;DHT22;32569;51.762;8.564;2022-12-29T12:43:11;11.40;99.90
15231;DHT22;32569;51.762;8.564;2022-12-29T12:45:47;11.30;99.90
15231;DHT22;32569;51.762;8.564;2022-12-29T12:48:28;11.40;99.90
15231;DHT22;32569;51.762;8.564;2022-12-29T12:51:02;11.40;99.90
15231;DHT22;32569;51.762;8.564;2022-12-29T12:53:44;11.30;99.90
15231;DHT22;32569;51.762;8.564;2022-12-29T12:56:40;11.40;99.90
15231;DHT22;32569;51.762;8.564;2022-12-29T12:59:18;11.40;99.90
15231;DHT22;32569;51.762;8.564;2022-12-29T13:01:54;11.30;99.90
15231;DHT22;32569;51.762;8.564;2022-12-29T13:07:45;11.30;99.90
15231;DHT22;32569;51.762;8.564;2022-12-29T13:10:36;11.30;99.90
15231;DHT22;32569;51.762;8.564;2022-12-29T13:13:24;11.30;99.90
15231;DHT22;32569;51.762;8.564;2022-12-29T13:15:59;11.30;99.90
15231;DHT22;32569;51.762;8.564;2022-12-29T13:18:34;11.30;99.90
15231;DHT22;32569;51.762;8.564;2022-12-29T13:21:09;11.30;99.90
15231;DHT22;32569;51.762;8.564;2022-12-29T13:23:40;11.30;99.90
15231;DHT22;32569;51.762;8.564;2022-12-29T13:26:16;11.20;99.90
15231;DHT22;32569;51.762;8.564;2022-12-29T13:28:51;11.30;99.90
15231;DHT22;32569;51.762;8.564;2022-12-29T13:31:27;11.20;99.90
15231;DHT22;32569;51.762;8.564;2022-12-29T13:34:00;11.30;99.90
15231;DHT22;32569;51.762;8.564;2022-12-29T13:36:36;11.30;99.90
15231;DHT22;32569;51.762;8.564;2022-12-29T13:39:08;11.20;99.90
15231;DHT22;32569;51.762;8.564;2022-12-29T13:41:44;11.20;99.90
15231;DHT22;32569;51.762;8.564;2022-12-29T13:44:17;11.20;99.90
15231;DHT22;32569;51.762;8.564;2022-12-29T13:46:46;11.20;99.90
15231;DHT22;32569;51.762;8.564;2022-12-29T13:49:15;11.20;99.90
15231;DHT22;32569;51.762;8.564;2022-12-29T13:51:48;11.10;99.90
15231;DHT22;32569;51.762;8.564;2022-12-29T13:54:25;11.10;99.90
15231;DHT22;32569;51.762;8.564;2022-12-29T13:57:03;11.10;99.90
15231;DHT22;32569;51.762;8.564;2022-12-29T13:59:40;11.10;99.90
15231;DHT22;32569;51.762;8.564;2022-12-29T14:02:18;11.10;99.90
15231;DHT22;32569;51.762;8.564;2022-12-29T14:05:00;11.10;99.90
15231;DHT22;32569;51.762;8.564;2022-12-29T14:07:27;11.10;99.90
15231;DHT22;32569;51.762;8.564;2022-12-29T14:09:55;11.10;99.90
15231;DHT22;32569;51.762;8.564;2022-12-29T14:12:31;11.00;99.90
15231;DHT22;32569;51.762;8.564;2022-12-29T14:18:03;10.90;99.90
15231;DHT22;32569;51.762;8.564;2022-12-29T14:20:32;11.00;99.90
15231;DHT22;32569;51.762;8.564;2022-12-29T14:23:12;11.00;99.90
15231;DHT22;32569;51.762;8.564;2022-12-29T14:26:00;10.90;99.90
15231;DHT22;32569;51.762;8.564;2022-12-29T14:28:30;10.90;99.90
15231;DHT22;32569;51.762;8.564;2022-12-29T14:30:59;10.90;99.90
15231;DHT22;32569;51.762;8.564;2022-12-29T14:33:29;10.80;99.90
15231;DHT22;32569;51.762;8.564;2022-12-29T14:35:57;10.80;99.90
15231;DHT22;32569;51.762;8.564;2022-12-29T14:38:45;10.80;99.90
15231;DHT22;32569;51.762;8.564;2022-12-29T14:44:09;10.70;99.90
15231;DHT22;32569;51.762;8.564;2022-12-29T14:46:47;10.70;99.90
15231;DHT22;32569;51.762;8.564;2022-12-29T14:49:18;10.70;99.90
15231;DHT22;32569;51.762;8.564;2022-12-29T14:51:45;10.70;99.90
15231;DHT22;32569;51.762;8.564;2022-12-29T14:54:42;10.70;99.90
15231;DHT22;32569;51.762;8.564;2022-12-29T14:57:15;10.70;99.90
15231;DHT22;32569;51.762;8.564;2022-12-29T14:59:47;10.70;99.90
15231;DHT22;32569;51.762;8.564;2022-12-29T15:02:17;10.70;99.90
15231;DHT22;32569;51.762;8.564;2022-12-29T15:04:46;10.70;99.90
15231;DHT22;32569;51.762;8.564;2022-12-29T15:07:13;10.70;99.90
15231;DHT22;32569;51.762;8.564;2022-12-29T15:09:44;10.60;99.90
15231;DHT22;32569;51.762;8.564;2022-12-29T15:12:20;10.60;99.90
15231;DHT22;32569;51.762;8.564;2022-12-29T15:14:53;10.60;99.90
15231;DHT22;32569;51.762;8.564;2022-12-29T15:17:25;10.60;99.90
15231;DHT22;32569;51.762;8.564;2022-12-29T15:19:52;10.60;99.90
15231;DHT22;32569;51.762;8.564;2022-12-29T15:22:20;10.60;99.90
15231;DHT22;32569;51.762;8.564;2022-12-29T15:24:48;10.60;99.90
15231;DHT22;32569;51.762;8.564;2022-12-29T15:27:19;10.60;99.90
15231;DHT22;32569;51.762;8.564;2022-12-29T15:29:46;10.50;99.90
15231;DHT22;32569;51.762;8.564;2022-12-29T15:32:21;10.50;99.90
15231;DHT22;32569;51.762;8.564;2022-12-29T15:34:51;10.60;99.90
15231;DHT22;32569;51.762;8.564;2022-12-29T15:37:20;10.60;99.90
15231;DHT22;32569;51.762;8.564;2022-12-29T15:39:48;10.60;99.90
15231;DHT22;32569;51.762;8.564;2022-12-29T15:42:39;10.60;99.90
15231;DHT22;32569;51.762;8.564;2022-12-29T15:45:14;10.60;99.90
15231;DHT22;32569;51.762;8.564;2022-12-29T15:47:44;10.60;99.90
15231;DHT22;32569;51.762;8.564;2022-12-29T15:50:20;10.60;99.90
15231;DHT22;32569;51.762;8.564;2022-12-29T15:52:48;10.60;99.90
15231;DHT22;32569;51.762;8.564;2022-12-29T15:55:24;10.60;99.90
15231;DHT22;32569;51.762;8.564;2022-12-29T15:57:56;10.60;99.90
15231;DHT22;32569;51.762;8.564;2022-12-29T16:00:26;10.50;99.90
15231;DHT22;32569;51.762;8.564;2022-12-29T16:02:55;10.60;99.90
15231;DHT22;32569;51.762;8.564;2022-12-29T16:05:23;10.50;99.90
15231;DHT22;32569;51.762;8.564;2022-12-29T16:07:55;10.50;99.90
15231;DHT22;32569;51.762;8.564;2022-12-29T16:10:26;10.50;99.90
15231;DHT22;32569;51.762;8.564;2022-12-29T16:12:54;10.50;99.90
15231;DHT22;32569;51.762;8.564;2022-12-29T16:15:21;10.50;99.90